Terminal Aerodrome Forecast
Issued by NWS Flagstaff, AZ

Home | Current Version | Previous Version | Text Only | Print | Product List | Glossary On
Versions: 1 2 3 4 5 6 7 8 9 10 11 12 13
368
FTUS45 KFGZ 221740
TAFINW
TAF
KINW 221740Z 2218/2318 18010G20KT P6SM FEW080
     FM221930 20020G30KT P6SM SCT080
     FM230200 22010KT P6SM SCT080=

USA.gov is the U.S. government's official web portal to all federal, state and local government web resources and services.